sensor_id;sensor_type;location;lat;lon;timestamp;pressure;altitude;pressure_sealevel;temperature;humidity
46430;BME280;32131;53.454;-6.180;2022-09-13T00:01:01;101411.72;;;11.19;100.00
46430;BME280;32131;53.454;-6.180;2022-09-13T00:03:29;101413.38;;;11.15;100.00
46430;BME280;32131;53.454;-6.180;2022-09-13T00:06:08;101411.59;;;11.12;100.00
46430;BME280;32131;53.454;-6.180;2022-09-13T00:08:37;101421.84;;;11.09;100.00
46430;BME280;32131;53.454;-6.180;2022-09-13T00:11:05;101421.84;;;11.09;100.00
46430;BME280;32131;53.454;-6.180;2022-09-13T00:13:34;101422.66;;;11.07;100.00
46430;BME280;32131;53.454;-6.180;2022-09-13T00:16:02;101424.31;;;11.05;100.00
46430;BME280;32131;53.454;-6.180;2022-09-13T00:18:31;101419.09;;;11.01;100.00
46430;BME280;32131;53.454;-6.180;2022-09-13T00:21:04;101425.13;;;11.02;100.00
46430;BME280;32131;53.454;-6.180;2022-09-13T00:23:37;101417.31;;;10.99;100.00
46430;BME280;32131;53.454;-6.180;2022-09-13T00:26:08;101411.22;;;10.97;100.00
46430;BME280;32131;53.454;-6.180;2022-09-13T00:28:37;101420.63;;;10.93;100.00
46430;BME280;32131;53.454;-6.180;2022-09-13T00:31:08;101417.13;;;10.91;100.00
46430;BME280;32131;53.454;-6.180;2022-09-13T00:33:39;101415.34;;;10.90;100.00
46430;BME280;32131;53.454;-6.180;2022-09-13T00:36:09;101411.81;;;10.85;100.00
46430;BME280;32131;53.454;-6.180;2022-09-13T00:38:42;101415.22;;;10.84;100.00
46430;BME280;32131;53.454;-6.180;2022-09-13T00:41:13;101416.88;;;10.82;100.00
46430;BME280;32131;53.454;-6.180;2022-09-13T00:43:45;101403.84;;;10.77;100.00
46430;BME280;32131;53.454;-6.180;2022-09-13T00:46:21;101398.53;;;10.71;100.00
46430;BME280;32131;53.454;-6.180;2022-09-13T00:48:54;101401.91;;;10.68;100.00
46430;BME280;32131;53.454;-6.180;2022-09-13T00:51:24;101407.91;;;10.67;100.00
46430;BME280;32131;53.454;-6.180;2022-09-13T00:53:55;101406.91;;;10.62;100.00
46430;BME280;32131;53.454;-6.180;2022-09-13T00:56:30;101409.47;;;10.62;100.00
46430;BME280;32131;53.454;-6.180;2022-09-13T00:59:03;101408.59;;;10.60;100.00
46430;BME280;32131;53.454;-6.180;2022-09-13T01:01:36;101399.09;;;10.59;100.00
46430;BME280;32131;53.454;-6.180;2022-09-13T01:04:07;101399.00;;;10.56;100.00
46430;BME280;32131;53.454;-6.180;2022-09-13T01:06:38;101393.78;;;10.53;100.00
46430;BME280;32131;53.454;-6.180;2022-09-13T01:09:11;101400.59;;;10.51;100.00
46430;BME280;32131;53.454;-6.180;2022-09-13T01:11:44;101402.25;;;10.49;100.00
46430;BME280;32131;53.454;-6.180;2022-09-13T01:14:17;101396.16;;;10.45;100.00
46430;BME280;32131;53.454;-6.180;2022-09-13T01:16:46;101401.31;;;10.45;100.00
46430;BME280;32131;53.454;-6.180;2022-09-13T01:19:14;101407.28;;;10.43;100.00
46430;BME280;32131;53.454;-6.180;2022-09-13T01:28:22;101403.66;;;10.37;100.00
46430;BME280;32131;53.454;-6.180;2022-09-13T01:31:07;101410.50;;;10.35;100.00
46430;BME280;32131;53.454;-6.180;2022-09-13T01:33:49;101408.59;;;10.28;100.00
46430;BME280;32131;53.454;-6.180;2022-09-13T01:36:38;101410.25;;;10.26;100.00
46430;BME280;32131;53.454;-6.180;2022-09-13T01:39:14;101410.13;;;10.21;100.00
46430;BME280;32131;53.454;-6.180;2022-09-13T01:41:56;101409.19;;;10.19;100.00
46430;BME280;32131;53.454;-6.180;2022-09-13T01:44:36;101405.63;;;10.14;100.00
46430;BME280;32131;53.454;-6.180;2022-09-13T01:47:18;101407.28;;;10.12;100.00
46430;BME280;32131;53.454;-6.180;2022-09-13T01:50:03;101401.16;;;10.09;100.00
46430;BME280;32131;53.454;-6.180;2022-09-13T01:52:41;101408.94;;;10.10;100.00
46430;BME280;32131;53.454;-6.180;2022-09-13T01:55:23;101402.81;;;10.06;100.00
46430;BME280;32131;53.454;-6.180;2022-09-13T01:58:02;101406.22;;;10.05;100.00
46430;BME280;32131;53.454;-6.180;2022-09-13T02:00:38;101407.13;;;10.07;100.00
46430;BME280;32131;53.454;-6.180;2022-09-13T02:03:20;101401.06;;;10.05;100.00
46430;BME280;32131;53.454;-6.180;2022-09-13T02:06:01;101401.13;;;10.07;100.00
46430;BME280;32131;53.454;-6.180;2022-09-13T02:08:35;101393.25;;;10.02;100.00
46430;BME280;32131;53.454;-6.180;2022-09-13T02:11:09;101405.28;;;10.03;100.00
46430;BME280;32131;53.454;-6.180;2022-09-13T02:13:45;101403.50;;;10.01;100.00
46430;BME280;32131;53.454;-6.180;2022-09-13T02:16:19;101398.22;;;9.96;100.00
46430;BME280;32131;53.454;-6.180;2022-09-13T02:18:55;101390.41;;;9.93;100.00
46430;BME280;32131;53.454;-6.180;2022-09-13T02:21:30;101393.72;;;9.89;100.00
46430;BME280;32131;53.454;-6.180;2022-09-13T02:24:04;101395.38;;;9.87;100.00
46430;BME280;32131;53.454;-6.180;2022-09-13T02:26:38;101396.16;;;9.84;100.00
46430;BME280;32131;53.454;-6.180;2022-09-13T02:29:11;101391.69;;;9.79;100.00
46430;BME280;32131;53.454;-6.180;2022-09-13T02:31:47;101383.06;;;9.77;100.00
46430;BME280;32131;53.454;-6.180;2022-09-13T02:34:21;101390.81;;;9.78;100.00
46430;BME280;32131;53.454;-6.180;2022-09-13T02:36:52;101400.28;;;9.78;100.00
46430;BME280;32131;53.454;-6.180;2022-09-13T02:39:23;101391.66;;;9.77;100.00
46430;BME280;32131;53.454;-6.180;2022-09-13T02:41:55;101388.16;;;9.75;100.00
46430;BME280;32131;53.454;-6.180;2022-09-13T02:44:31;101392.53;;;9.78;100.00
46430;BME280;32131;53.454;-6.180;2022-09-13T02:47:13;101396.84;;;9.79;100.00
46430;BME280;32131;53.454;-6.180;2022-09-13T02:49:56;101391.69;;;9.79;100.00
46430;BME280;32131;53.454;-6.180;2022-09-13T02:52:34;101394.34;;;9.80;100.00
46430;BME280;32131;53.454;-6.180;2022-09-13T02:55:11;101393.44;;;9.80;100.00
46430;BME280;32131;53.454;-6.180;2022-09-13T02:57:51;101389.19;;;9.80;100.00
46430;BME280;32131;53.454;-6.180;2022-09-13T03:00:21;101383.13;;;9.80;100.00
46430;BME280;32131;53.454;-6.180;2022-09-13T03:02:51;101386.59;;;9.80;100.00
46430;BME280;32131;53.454;-6.180;2022-09-13T03:05:22;101389.22;;;9.82;100.00
46430;BME280;32131;53.454;-6.180;2022-09-13T03:07:51;101381.38;;;9.79;100.00
46430;BME280;32131;53.454;-6.180;2022-09-13T03:10:20;101374.41;;;9.74;100.00
46430;BME280;32131;53.454;-6.180;2022-09-13T03:13:17;101376.94;;;9.73;100.00
46430;BME280;32131;53.454;-6.180;2022-09-13T03:16:02;101381.19;;;9.72;100.00
46430;BME280;32131;53.454;-6.180;2022-09-13T03:19:07;101377.63;;;9.67;100.00
46430;BME280;32131;53.454;-6.180;2022-09-13T03:22:01;101381.97;;;9.68;100.00
46430;BME280;32131;53.454;-6.180;2022-09-13T03:24:40;101381.00;;;9.65;100.00
46430;BME280;32131;53.454;-6.180;2022-09-13T03:27:53;101384.41;;;9.64;100.00
46430;BME280;32131;53.454;-6.180;2022-09-13T03:30:27;101379.94;;;9.58;100.00
46430;BME280;32131;53.454;-6.180;2022-09-13T03:33:00;101383.34;;;9.57;100.00
46430;BME280;32131;53.454;-6.180;2022-09-13T03:35:37;101379.81;;;9.55;100.00
46430;BME280;32131;53.454;-6.180;2022-09-13T03:38:11;101380.59;;;9.51;100.00
46430;BME280;32131;53.454;-6.180;2022-09-13T03:40:44;101375.47;;;9.52;100.00
46430;BME280;32131;53.454;-6.180;2022-09-13T03:43:18;101380.59;;;9.51;100.00
46430;BME280;32131;53.454;-6.180;2022-09-13T03:45:54;101380.47;;;9.48;100.00
46430;BME280;32131;53.454;-6.180;2022-09-13T03:48:25;101383.88;;;9.47;100.00
46430;BME280;32131;53.454;-6.180;2022-09-13T03:50:55;101390.81;;;9.49;100.00
46430;BME280;32131;53.454;-6.180;2022-09-13T03:53:26;101391.69;;;9.48;100.00
46430;BME280;32131;53.454;-6.180;2022-09-13T03:55:56;101395.13;;;9.49;100.00
46430;BME280;32131;53.454;-6.180;2022-09-13T03:58:25;101390.78;;;9.48;100.00
46430;BME280;32131;53.454;-6.180;2022-09-13T04:00:54;101391.69;;;9.48;100.00
46430;BME280;32131;53.454;-6.180;2022-09-13T04:03:23;101396.72;;;9.45;100.00
46430;BME280;32131;53.454;-6.180;2022-09-13T04:05:51;101394.19;;;9.47;100.00
46430;BME280;32131;53.454;-6.180;2022-09-13T04:08:20;101388.06;;;9.43;100.00
46430;BME280;32131;53.454;-6.180;2022-09-13T04:10:50;101388.06;;;9.43;100.00
46430;BME280;32131;53.454;-6.180;2022-09-13T04:13:19;101392.34;;;9.42;100.00
46430;BME280;32131;53.454;-6.180;2022-09-13T04:15:48;101390.66;;;9.43;100.00
46430;BME280;32131;53.454;-6.180;2022-09-13T04:18:17;101384.56;;;9.41;100.00
46430;BME280;32131;53.454;-6.180;2022-09-13T04:20:52;101385.47;;;9.41;100.00
46430;BME280;32131;53.454;-6.180;2022-09-13T04:23:21;101378.66;;;9.43;100.00
46430;BME280;32131;53.454;-6.180;2022-09-13T04:25:59;101382.94;;;9.44;100.00
46430;BME280;32131;53.454;-6.180;2022-09-13T04:28:28;101388.09;;;9.44;100.00
46430;BME280;32131;53.454;-6.180;2022-09-13T04:30:56;101390.59;;;9.41;100.00
46430;BME280;32131;53.454;-6.180;2022-09-13T04:33:26;101394.13;;;9.43;100.00
46430;BME280;32131;53.454;-6.180;2022-09-13T04:35:57;101384.66;;;9.44;100.00
46430;BME280;32131;53.454;-6.180;2022-09-13T04:38:25;101383.81;;;9.43;100.00
46430;BME280;32131;53.454;-6.180;2022-09-13T04:40:56;101376.00;;;9.42;100.00
46430;BME280;32131;53.454;-6.180;2022-09-13T04:43:24;101387.28;;;9.46;100.00
46430;BME280;32131;53.454;-6.180;2022-09-13T04:45:53;101391.63;;;9.47;100.00
46430;BME280;32131;53.454;-6.180;2022-09-13T04:48:21;101389.03;;;9.47;100.00
46430;BME280;32131;53.454;-6.180;2022-09-13T04:50:50;101375.28;;;9.46;100.00
46430;BME280;32131;53.454;-6.180;2022-09-13T04:53:19;101388.25;;;9.49;100.00
46430;BME280;32131;53.454;-6.180;2022-09-13T04:55:47;101385.75;;;9.51;100.00
46430;BME280;32131;53.454;-6.180;2022-09-13T04:58:17;101393.50;;;9.52;100.00
46430;BME280;32131;53.454;-6.180;2022-09-13T05:00:46;101383.16;;;9.51;100.00
46430;BME280;32131;53.454;-6.180;2022-09-13T05:03:14;101387.50;;;9.52;100.00
46430;BME280;32131;53.454;-6.180;2022-09-13T05:05:43;101384.78;;;9.47;100.00
46430;BME280;32131;53.454;-6.180;2022-09-13T05:08:11;101382.13;;;9.46;100.00
46430;BME280;32131;53.454;-6.180;2022-09-13T05:10:40;101383.81;;;9.43;100.00
46430;BME280;32131;53.454;-6.180;2022-09-13T05:13:08;101383.81;;;9.43;100.00
46430;BME280;32131;53.454;-6.180;2022-09-13T05:15:37;101382.06;;;9.42;100.00
46430;BME280;32131;53.454;-6.180;2022-09-13T05:18:06;101383.88;;;9.47;100.00
46430;BME280;32131;53.454;-6.180;2022-09-13T05:20:34;101371.09;;;9.50;100.00
46430;BME280;32131;53.454;-6.180;2022-09-13T05:23:03;101372.09;;;9.55;100.00
46430;BME280;32131;53.454;-6.180;2022-09-13T05:25:31;101371.41;;;9.60;100.00
46430;BME280;32131;53.454;-6.180;2022-09-13T05:28:00;101365.38;;;9.60;100.00
46430;BME280;32131;53.454;-6.180;2022-09-13T05:30:28;101358.56;;;9.62;100.00
46430;BME280;32131;53.454;-6.180;2022-09-13T05:32:57;101364.50;;;9.59;100.00
46430;BME280;32131;53.454;-6.180;2022-09-13T05:35:26;101361.88;;;9.58;100.00
46430;BME280;32131;53.454;-6.180;2022-09-13T05:37:54;101364.47;;;9.58;100.00
46430;BME280;32131;53.454;-6.180;2022-09-13T05:40:25;101361.09;;;9.60;100.00
46430;BME280;32131;53.454;-6.180;2022-09-13T05:42:53;101349.91;;;9.60;100.00
46430;BME280;32131;53.454;-6.180;2022-09-13T05:45:21;101345.66;;;9.62;100.00
46430;BME280;32131;53.454;-6.180;2022-09-13T05:47:50;101345.59;;;9.59;100.00
46430;BME280;32131;53.454;-6.180;2022-09-13T05:50:21;101349.91;;;9.60;100.00
46430;BME280;32131;53.454;-6.180;2022-09-13T05:53:09;101362.75;;;9.58;100.00
46430;BME280;32131;53.454;-6.180;2022-09-13T05:55:37;101366.91;;;9.53;100.00
46430;BME280;32131;53.454;-6.180;2022-09-13T05:58:05;101363.44;;;9.53;100.00
46430;BME280;32131;53.454;-6.180;2022-09-13T06:00:34;101365.97;;;9.51;100.00
46430;BME280;32131;53.454;-6.180;2022-09-13T06:03:02;101366.78;;;9.50;100.00
46430;BME280;32131;53.454;-6.180;2022-09-13T06:05:32;101364.44;;;9.56;100.00
46430;BME280;32131;53.454;-6.180;2022-09-13T06:08:01;101371.56;;;9.67;100.00
46430;BME280;32131;53.454;-6.180;2022-09-13T06:11:58;101358.22;;;9.80;100.00
46430;BME280;32131;53.454;-6.180;2022-09-13T06:15:14;101359.50;;;9.96;100.00
46430;BME280;32131;53.454;-6.180;2022-09-13T06:18:18;101353.47;;;9.94;100.00
46430;BME280;32131;53.454;-6.180;2022-09-13T06:24:22;101354.09;;;9.87;100.00
46430;BME280;32131;53.454;-6.180;2022-09-13T06:27:19;101361.00;;;9.88;100.00
46430;BME280;32131;53.454;-6.180;2022-09-13T06:29:57;101358.84;;;10.03;100.00
46430;BME280;32131;53.454;-6.180;2022-09-13T06:32:28;101347.00;;;10.10;100.00
46430;BME280;32131;53.454;-6.180;2022-09-13T06:35:02;101348.03;;;10.17;100.00
46430;BME280;32131;53.454;-6.180;2022-09-13T06:37:31;101357.81;;;10.29;100.00
46430;BME280;32131;53.454;-6.180;2022-09-13T06:40:15;101353.69;;;10.35;100.00
46430;BME280;32131;53.454;-6.180;2022-09-13T06:44:32;101365.44;;;10.56;100.00
46430;BME280;32131;53.454;-6.180;2022-09-13T06:46:56;101365.06;;;10.76;100.00
46430;BME280;32131;53.454;-6.180;2022-09-13T06:49:59;101361.81;;;10.84;100.00
46430;BME280;32131;53.454;-6.180;2022-09-13T06:52:59;101370.03;;;11.03;100.00
46430;BME280;32131;53.454;-6.180;2022-09-13T06:55:48;101373.78;;;11.17;100.00
46430;BME280;32131;53.454;-6.180;2022-09-13T09:25:04;101386.25;;;15.89;81.48
46430;BME280;32131;53.454;-6.180;2022-09-13T09:28:18;101379.38;;;16.13;80.24
46430;BME280;32131;53.454;-6.180;2022-09-13T09:30:55;101374.19;;;16.25;78.96
46430;BME280;32131;53.454;-6.180;2022-09-13T09:33:45;101369.88;;;16.35;78.77
46430;BME280;32131;53.454;-6.180;2022-09-13T09:36:24;101371.59;;;16.33;78.59
46430;BME280;32131;53.454;-6.180;2022-09-13T09:38:55;101373.31;;;16.18;78.93
46430;BME280;32131;53.454;-6.180;2022-09-13T09:41:27;101376.78;;;16.13;78.99
46430;BME280;32131;53.454;-6.180;2022-09-13T09:44:01;101373.28;;;16.06;79.05
46430;BME280;32131;53.454;-6.180;2022-09-13T09:46:34;101379.41;;;16.25;78.89
46430;BME280;32131;53.454;-6.180;2022-09-13T09:49:09;101377.72;;;16.46;78.41
46430;BME280;32131;53.454;-6.180;2022-09-13T09:52:03;101379.44;;;16.75;77.71
46430;BME280;32131;53.454;-6.180;2022-09-13T09:54:33;101387.28;;;16.89;77.17
46430;BME280;32131;53.454;-6.180;2022-09-13T09:57:05;101389.03;;;16.99;76.36
46430;BME280;32131;53.454;-6.180;2022-09-13T09:59:34;101379.47;;;17.15;76.27
46430;BME280;32131;53.454;-6.180;2022-09-13T10:02:14;101377.69;;;17.31;75.61
46430;BME280;32131;53.454;-6.180;2022-09-13T10:04:56;101369.00;;;17.21;74.51
46430;BME280;32131;53.454;-6.180;2022-09-13T10:07:42;101373.41;;;17.07;73.88
46430;BME280;32131;53.454;-6.180;2022-09-13T10:10:20;101362.97;;;17.07;74.21
46430;BME280;32131;53.454;-6.180;2022-09-13T10:12:53;101360.34;;;17.16;73.60
46430;BME280;32131;53.454;-6.180;2022-09-13T10:15:25;101363.81;;;17.24;72.18
46430;BME280;32131;53.454;-6.180;2022-09-13T10:18:13;101361.13;;;17.38;71.53
46430;BME280;32131;53.454;-6.180;2022-09-13T10:21:04;101368.97;;;17.38;71.16
46430;BME280;32131;53.454;-6.180;2022-09-13T10:23:35;101368.09;;;17.38;71.27
46430;BME280;32131;53.454;-6.180;2022-09-13T10:26:09;101370.75;;;17.32;71.48
46430;BME280;32131;53.454;-6.180;2022-09-13T10:28:46;101363.78;;;17.29;71.18
46430;BME280;32131;53.454;-6.180;2022-09-13T10:31:19;101372.47;;;17.34;70.58
46430;BME280;32131;53.454;-6.180;2022-09-13T10:33:57;101368.09;;;17.41;70.01
46430;BME280;32131;53.454;-6.180;2022-09-13T10:36:56;101372.38;;;17.60;69.42
46430;BME280;32131;53.454;-6.180;2022-09-13T10:39:36;101374.94;;;17.74;69.16
46430;BME280;32131;53.454;-6.180;2022-09-13T10:42:23;101379.38;;;17.55;67.89
46430;BME280;32131;53.454;-6.180;2022-09-13T10:45:04;101382.84;;;17.50;67.60
46430;BME280;32131;53.454;-6.180;2022-09-13T10:47:37;101377.59;;;17.67;67.71
46430;BME280;32131;53.454;-6.180;2022-09-13T10:50:17;101374.06;;;17.71;67.70
46430;BME280;32131;53.454;-6.180;2022-09-13T10:52:47;101383.59;;;17.86;66.21
46430;BME280;32131;53.454;-6.180;2022-09-13T10:55:28;101382.66;;;17.95;66.40
46430;BME280;32131;53.454;-6.180;2022-09-13T10:58:15;101389.53;;;18.20;65.64
46430;BME280;32131;53.454;-6.180;2022-09-13T11:01:14;101384.19;;;18.41;64.93
46430;BME280;32131;53.454;-6.180;2022-09-13T11:06:39;101385.94;;;18.40;63.93
46430;BME280;32131;53.454;-6.180;2022-09-13T11:09:30;101376.28;;;18.47;63.85
46430;BME280;32131;53.454;-6.180;2022-09-13T11:12:12;101373.53;;;18.67;63.76
46430;BME280;32131;53.454;-6.180;2022-09-13T11:14:54;101377.03;;;18.66;63.41
46430;BME280;32131;53.454;-6.180;2022-09-13T11:17:57;101389.41;;;18.42;63.80
46430;BME280;32131;53.454;-6.180;2022-09-13T11:20:37;101388.56;;;18.37;63.66
46430;BME280;32131;53.454;-6.180;2022-09-13T11:23:32;101381.50;;;18.47;63.49
46430;BME280;32131;53.454;-6.180;2022-09-13T11:26:38;101378.22;;;18.20;63.35
46430;BME280;32131;53.454;-6.180;2022-09-13T11:29:19;101386.19;;;17.97;63.60
46430;BME280;32131;53.454;-6.180;2022-09-13T11:31:58;101365.13;;;18.26;62.88
46430;BME280;32131;53.454;-6.180;2022-09-13T11:34:40;101362.94;;;18.82;61.65
46430;BME280;32131;53.454;-6.180;2022-09-13T11:37:36;101369.38;;;19.39;61.03
46430;BME280;32131;53.454;-6.180;2022-09-13T11:40:30;101371.03;;;19.46;60.13
46430;BME280;32131;53.454;-6.180;2022-09-13T11:43:15;101363.94;;;19.58;59.28
46430;BME280;32131;53.454;-6.180;2022-09-13T11:45:57;101364.75;;;19.61;59.21
46430;BME280;32131;53.454;-6.180;2022-09-13T11:48:43;101364.13;;;19.39;59.67
46430;BME280;32131;53.454;-6.180;2022-09-13T11:51:26;101348.50;;;19.33;60.11
46430;BME280;32131;53.454;-6.180;2022-09-13T11:54:08;101353.63;;;19.42;60.53
46430;BME280;32131;53.454;-6.180;2022-09-13T11:56:42;101352.69;;;19.50;60.67
46430;BME280;32131;53.454;-6.180;2022-09-13T11:59:19;101349.97;;;19.56;60.47
46430;BME280;32131;53.454;-6.180;2022-09-13T12:01:53;101343.81;;;19.61;59.31
46430;BME280;32131;53.454;-6.180;2022-09-13T12:04:28;101339.00;;;19.24;59.92
46430;BME280;32131;53.454;-6.180;2022-09-13T12:07:03;101341.88;;;19.01;60.61
46430;BME280;32131;53.454;-6.180;2022-09-13T12:09:38;101345.28;;;19.06;59.67
46430;BME280;32131;53.454;-6.180;2022-09-13T12:12:10;101342.50;;;19.23;60.08
46430;BME280;32131;53.454;-6.180;2022-09-13T12:14:43;101334.19;;;19.63;58.90
46430;BME280;32131;53.454;-6.180;2022-09-13T12:17:22;101344.63;;;19.65;58.66
46430;BME280;32131;53.454;-6.180;2022-09-13T12:19:54;101346.69;;;19.38;58.81
46430;BME280;32131;53.454;-6.180;2022-09-13T12:22:27;101337.53;;;18.97;58.66
46430;BME280;32131;53.454;-6.180;2022-09-13T12:24:58;101348.00;;;18.97;59.54
46430;BME280;32131;53.454;-6.180;2022-09-13T12:27:36;101335.41;;;19.33;58.84
46430;BME280;32131;53.454;-6.180;2022-09-13T12:30:13;101338.13;;;19.24;59.73
46430;BME280;32131;53.454;-6.180;2022-09-13T12:32:45;101330.91;;;19.44;59.07
46430;BME280;32131;53.454;-6.180;2022-09-13T12:35:20;101329.78;;;19.64;58.84
46430;BME280;32131;53.454;-6.180;2022-09-13T12:41:26;101321.91;;;20.30;57.80
46430;BME280;32131;53.454;-6.180;2022-09-13T12:44:15;101320.66;;;19.98;58.54
46430;BME280;32131;53.454;-6.180;2022-09-13T12:47:01;101328.59;;;19.90;58.20
46430;BME280;32131;53.454;-6.180;2022-09-13T12:49:47;101323.22;;;20.01;58.39
46430;BME280;32131;53.454;-6.180;2022-09-13T12:52:34;101327.34;;;19.52;58.45
46430;BME280;32131;53.454;-6.180;2022-09-13T12:55:20;101330.28;;;19.24;59.35
46430;BME280;32131;53.454;-6.180;2022-09-13T12:58:29;101323.28;;;19.26;59.39
46430;BME280;32131;53.454;-6.180;2022-09-13T13:01:14;101318.53;;;19.59;59.11
46430;BME280;32131;53.454;-6.180;2022-09-13T13:03:50;101319.25;;;19.69;57.78
46430;BME280;32131;53.454;-6.180;2022-09-13T13:06:29;101314.75;;;19.78;57.59
46430;BME280;32131;53.454;-6.180;2022-09-13T13:09:03;101312.31;;;19.66;57.67
46430;BME280;32131;53.454;-6.180;2022-09-13T13:11:44;101311.19;;;19.84;57.41
46430;BME280;32131;53.454;-6.180;2022-09-13T13:14:46;101311.63;;;20.16;57.28
46430;BME280;32131;53.454;-6.180;2022-09-13T13:17:49;101299.22;;;19.66;57.97
46430;BME280;32131;53.454;-6.180;2022-09-13T13:21:05;101303.44;;;19.76;58.22
46430;BME280;32131;53.454;-6.180;2022-09-13T13:23:35;101300.56;;;19.95;57.01
46430;BME280;32131;53.454;-6.180;2022-09-13T13:26:08;101299.59;;;20.04;56.41
46430;BME280;32131;53.454;-6.180;2022-09-13T13:29:13;101293.31;;;20.13;56.37
46430;BME280;32131;53.454;-6.180;2022-09-13T13:34:34;101291.81;;;19.96;56.07
46430;BME280;32131;53.454;-6.180;2022-09-13T13:37:05;101287.59;;;19.86;56.10
46430;BME280;32131;53.454;-6.180;2022-09-13T13:40:19;101285.50;;;19.45;57.32
46430;BME280;32131;53.454;-6.180;2022-09-13T13:42:48;101271.88;;;19.20;57.68
46430;BME280;32131;53.454;-6.180;2022-09-13T13:45:20;101270.09;;;19.21;57.59
46430;BME280;32131;53.454;-6.180;2022-09-13T13:48:06;101276.13;;;19.27;57.89
46430;BME280;32131;53.454;-6.180;2022-09-13T13:53:51;101269.09;;;19.98;56.67
46430;BME280;32131;53.454;-6.180;2022-09-13T13:56:24;101270.81;;;19.99;56.64
46430;BME280;32131;53.454;-6.180;2022-09-13T13:58:59;101271.88;;;19.84;57.03
46430;BME280;32131;53.454;-6.180;2022-09-13T14:01:32;101262.41;;;19.74;56.81
46430;BME280;32131;53.454;-6.180;2022-09-13T14:07:31;101267.22;;;20.06;56.37
46430;BME280;32131;53.454;-6.180;2022-09-13T14:10:11;101267.63;;;20.35;55.71
46430;BME280;32131;53.454;-6.180;2022-09-13T14:12:52;101261.03;;;20.62;55.47
46430;BME280;32131;53.454;-6.180;2022-09-13T14:15:41;101257.06;;;20.88;54.93
46430;BME280;32131;53.454;-6.180;2022-09-13T14:18:35;101258.22;;;20.75;55.04
46430;BME280;32131;53.454;-6.180;2022-09-13T14:21:20;101262.09;;;20.52;55.20
46430;BME280;32131;53.454;-6.180;2022-09-13T14:23:53;101258.59;;;20.51;55.27
46430;BME280;32131;53.454;-6.180;2022-09-13T14:26:34;101259.31;;;20.60;54.61
46430;BME280;32131;53.454;-6.180;2022-09-13T14:29:07;101262.91;;;20.54;55.02
46430;BME280;32131;53.454;-6.180;2022-09-13T14:31:36;101254.22;;;20.52;54.87
46430;BME280;32131;53.454;-6.180;2022-09-13T14:34:04;101259.63;;;20.42;54.79
46430;BME280;32131;53.454;-6.180;2022-09-13T14:36:35;101250.00;;;20.43;55.21
46430;BME280;32131;53.454;-6.180;2022-09-13T14:39:07;101251.56;;;20.53;55.10
46430;BME280;32131;53.454;-6.180;2022-09-13T14:41:37;101249.97;;;20.46;54.81
46430;BME280;32131;53.454;-6.180;2022-09-13T14:44:15;101248.16;;;20.50;54.79
46430;BME280;32131;53.454;-6.180;2022-09-13T14:46:59;101245.69;;;20.40;55.13
46430;BME280;32131;53.454;-6.180;2022-09-13T14:49:32;101237.19;;;20.24;55.03
46430;BME280;32131;53.454;-6.180;2022-09-13T14:52:05;101236.56;;;20.10;55.38
46430;BME280;32131;53.454;-6.180;2022-09-13T14:54:37;101241.16;;;19.97;55.88
46430;BME280;32131;53.454;-6.180;2022-09-13T14:57:17;101232.44;;;19.95;56.49
46430;BME280;32131;53.454;-6.180;2022-09-13T14:59:49;101223.00;;;19.85;56.54
46430;BME280;32131;53.454;-6.180;2022-09-13T15:02:22;101224.84;;;19.76;56.59
46430;BME280;32131;53.454;-6.180;2022-09-13T15:04:53;101217.06;;;19.72;56.80
46430;BME280;32131;53.454;-6.180;2022-09-13T15:07:29;101229.03;;;19.90;56.70
46430;BME280;32131;53.454;-6.180;2022-09-13T15:10:05;101227.00;;;20.07;56.24
46430;BME280;32131;53.454;-6.180;2022-09-13T15:12:34;101220.03;;;20.06;55.58
46430;BME280;32131;53.454;-6.180;2022-09-13T15:15:25;101225.50;;;19.92;55.69
46430;BME280;32131;53.454;-6.180;2022-09-13T15:17:55;101221.22;;;19.87;55.77
46430;BME280;32131;53.454;-6.180;2022-09-13T15:20:23;101223.84;;;19.87;56.45
46430;BME280;32131;53.454;-6.180;2022-09-13T15:22:54;101218.75;;;19.74;55.46
46430;BME280;32131;53.454;-6.180;2022-09-13T15:25:25;101212.88;;;19.60;55.61
46430;BME280;32131;53.454;-6.180;2022-09-13T15:27:58;101228.00;;;19.36;56.52
46430;BME280;32131;53.454;-6.180;2022-09-13T15:30:28;101232.44;;;19.32;57.02
46430;BME280;32131;53.454;-6.180;2022-09-13T15:33:05;101221.91;;;19.37;57.17
46430;BME280;32131;53.454;-6.180;2022-09-13T15:35:36;101207.06;;;19.36;56.99
46430;BME280;32131;53.454;-6.180;2022-09-13T15:38:23;101220.13;;;19.39;57.04
46430;BME280;32131;53.454;-6.180;2022-09-13T15:41:01;101218.34;;;19.43;57.21
46430;BME280;32131;53.454;-6.180;2022-09-13T15:43:29;101219.16;;;19.46;57.07
46430;BME280;32131;53.454;-6.180;2022-09-13T15:45:58;101213.94;;;19.43;56.87
46430;BME280;32131;53.454;-6.180;2022-09-13T15:48:28;101210.53;;;19.38;56.90
46430;BME280;32131;53.454;-6.180;2022-09-13T15:51:06;101214.25;;;19.22;57.70
46430;BME280;32131;53.454;-6.180;2022-09-13T15:53:37;101215.44;;;18.96;58.35
46430;BME280;32131;53.454;-6.180;2022-09-13T15:56:25;101206.84;;;18.83;58.96
46430;BME280;32131;53.454;-6.180;2022-09-13T15:58:58;101203.41;;;18.78;58.54
46430;BME280;32131;53.454;-6.180;2022-09-13T16:01:38;101202.50;;;18.80;58.95
46430;BME280;32131;53.454;-6.180;2022-09-13T16:04:38;101193.81;;;18.78;59.03
46430;BME280;32131;53.454;-6.180;2022-09-13T16:07:39;101196.16;;;19.03;58.48
46430;BME280;32131;53.454;-6.180;2022-09-13T16:10:16;101197.84;;;19.09;58.12
46430;BME280;32131;53.454;-6.180;2022-09-13T16:12:45;101196.28;;;18.89;59.03
46430;BME280;32131;53.454;-6.180;2022-09-13T16:15:13;101194.78;;;18.68;59.62
46430;BME280;32131;53.454;-6.180;2022-09-13T16:17:42;101195.06;;;18.42;60.14
46430;BME280;32131;53.454;-6.180;2022-09-13T16:20:12;101183.91;;;18.24;60.42
46430;BME280;32131;53.454;-6.180;2022-09-13T16:22:41;101176.13;;;18.18;60.92